EDT,Max TemperatureF,Mean TemperatureF,Min TemperatureF,Max Dew PointF,MeanDew PointF,Min DewpointF,Max Humidity, Mean Humidity, Min Humidity, Max Sea Level PressureIn, Mean Sea Level PressureIn, Min Sea Level PressureIn, Max VisibilityMiles, Mean VisibilityMiles, Min VisibilityMiles, Max Wind SpeedMPH, Mean Wind SpeedMPH, Max Gust SpeedMPH,PrecipitationIn, CloudCover, Events, WindDirDegrees
2013-6-1,82,75,68,67,64,61,91,73,49,29.83,29.73,29.66,10,10,10,17,8,25,0.00,5,Rain,203
2013-6-2,68,56,43,65,52,39,97,79,61,30.03,29.79,29.61,10,10,4,18,7,26,0.01,7,Rain,281
2013-6-3,70,52,35,45,40,36,99,67,33,30.09,30.04,29.99,10,10,7,13,3,23,0.00,1,,289
2013-6-4,69,54,39,48,41,36,99,62,34,30.21,30.17,30.10,10,10,10,10,2,,0.00,0,,82
2013-6-5,67,60,52,48,44,39,75,57,39,30.22,30.14,30.06,10,10,0,16,5,20,0.00,7,Rain,67
2013-6-6,64,58,51,50,48,43,85,67,48,30.06,29.97,29.93,10,10,10,15,7,23,0.00,5,Rain,48
2013-6-7,65,55,45,53,49,45,98,78,52,29.95,29.93,29.90,10,10,5,16,6,22,0.00,2,,38
2013-6-8,71,58,44,57,51,44,99,77,49,30.08,29.99,29.92,10,10,7,10,1,,0.00,5,,32
2013-6-9,78,62,47,60,54,47,99,70,46,30.12,30.06,29.97,10,10,7,16,4,25,0.00,4,,104
2013-6-10,66,62,59,65,61,53,100,90,65,29.97,29.84,29.78,10,5,1,12,5,,0.03,8,Rain,56
2013-6-11,81,72,63,66,63,60,100,78,52,29.88,29.84,29.79,10,7,0,12,2,17,0.00,5,Fog,267
2013-6-12,78,68,58,66,63,58,99,85,60,29.91,29.84,29.68,10,7,0,13,2,17,0.01,6,Fog-Rain,121
2013-6-13,77,68,59,64,59,54,98,74,45,29.96,29.80,29.67,10,10,5,14,5,22,0.09,4,Rain,345
2013-6-14,76,64,52,55,51,45,97,69,33,30.11,30.05,29.97,10,10,10,10,4,,0.00,0,,6
2013-6-15,77,62,47,62,54,47,99,72,45,30.07,29.99,29.88,10,10,10,12,2,,0.00,2,,219
2013-6-16,83,73,63,66,60,50,99,70,34,29.87,29.81,29.74,10,9,2,18,6,28,0.51,5,Rain,259
2013-6-17,75,66,56,64,58,53,99,81,59,29.99,29.90,29.84,10,10,5,16,4,22,0.14,4,Rain,17
2013-6-18,68,58,46,54,47,41,95,65,37,30.11,30.06,29.97,10,10,10,18,8,24,0.00,2,,49
2013-6-19,73,56,40,51,45,40,99,67,35,30.20,30.15,30.11,10,10,10,8,2,,0.00,0,,84
2013-6-20,81,64,48,58,51,47,99,63,32,30.20,30.17,30.14,10,10,5,7,2,,0.00,0,,188
2013-6-21,85,70,54,66,59,52,97,66,42,30.19,30.11,30.01,10,10,5,16,3,26,0.00,1,,183
2013-6-22,88,78,67,70,66,60,92,68,46,30.06,30.02,29.95,10,10,5,9,5,,0.00,4,,232
2013-6-23,91,76,61,71,66,61,99,73,44,30.04,29.99,29.92,10,9,3,17,5,22,0.00,1,,226
2013-6-24,86,77,68,70,67,61,93,69,49,30.02,29.97,29.89,10,10,7,14,5,22,0.00,2,,230
2013-6-25,80,74,68,69,66,64,96,79,60,29.92,29.87,29.82,10,10,7,15,4,22,0.01,4,Rain,238
2013-6-26,86,73,60,70,66,60,99,78,49,29.86,29.80,29.75,10,9,1,9,2,,0.00,2,,180
2013-6-27,85,76,67,72,69,65,99,88,57,29.76,29.72,29.64,10,8,1,12,2,24,0.39,4,Rain,330
2013-6-28,77,70,63,68,65,60,100,91,63,29.65,29.60,29.55,10,8,1,24,3,48,0.15,6,Rain,307
2013-6-29,72,66,59,63,61,59,99,87,65,29.78,29.66,29.58,10,10,4,9,2,,0.12,7,Rain,17
2013-6-30,77,65,53,61,56,46,99,74,42,30.01,29.89,29.78,10,10,5,15,3,18,0.08,3,,50